Ship Status Report: callsign BATEU06

sailwx.info

Track history (hours):
 
Tides and Currents Weather Stations Pressure Air Temp Water Temp Dewpoint Dewpoint Depression Visibility Wind Speed Wind Dir Waves Ship Positions

Callsign BATEU06 (name unknown)

Last reported at 2015-Jul-04 07:00 UTC. Time now 2015-Jul-04 08:24 UTC.
Position N 47°06' W 058°18'.

Wind from 220 at 11 knots

Barometer 1009.4 mb
Water temperature 10.7 ° C

Date/timePositionNaut miles runAvg speedWind from/ knotsBaromVisibWave heightAir tempDewpointWater temp
2015-Jul-04 07:00N 47°06' W 058°18'1717.4 220 / 111009.4 10.7
2015-Jul-04 06:00N 47°12' W 058°42'1717.4 210 / 101008.9 10.9
2015-Jul-04 05:00N 47°18' W 059°06'2121.2 190 / 101008.4 10.4
2015-Jul-04 04:00N 47°24' W 059°36'2020.2 170 / 101008.1 11.0
2015-Jul-04 03:00N 47°36' W 060°00'2020.1 180 / 171007.6 9.4
2015-Jul-04 02:00N 47°48' W 060°24'1717.2 180 / 191007.0 10.2
2015-Jul-04 01:00N 47°54' W 060°48'2020.0 200 / 141006.9 11.0
2015-Jul-04 00:00N 48°06' W 061°12'2020.0 210 / 161006.2 11.7
2015-Jul-03 23:00N 48°18' W 061°36'1717.0 230 / 181005.8 12.7
2015-Jul-03 22:00N 48°24' W 062°00'4321.5 230 / 181005.0 12.2
2015-Jul-03 20:00N 48°48' W 062°54'1716.9 270 / 111004.9 13.4
2015-Jul-03 19:00N 48°54' W 063°18'2019.8 270 / 131004.5 12.7
2015-Jul-03 18:00N 49°06' W 063°42'1716.8 250 / 121004.0 11.9
2015-Jul-03 17:00N 49°12' W 064°06'2020.5 100 / 21002.8 12.7
2015-Jul-03 16:00N 49°18' W 064°36'2019.6 080 / 61002.1 11.4
2015-Jul-03 15:00N 49°18' W 065°06'2020.4 050 / 91002.6 13.7
2015-Jul-03 14:00N 49°24' W 065°36'2020.4 150 / 11002.8 12.7
2015-Jul-03 13:00N 49°18' W 066°06'2019.6 230 / 171003.2 13.0
2015-Jul-03 12:00N 49°18' W 066°36'2020.5 230 / 221002.8 12.2
2015-Jul-03 11:00N 49°12' W 067°06'2323.0 230 / 301002.5 11.4
2015-Jul-03 10:00N 49°00' W 067°36'4019.9 230 / 271002.5 8.9
2015-Jul-03 08:00N 48°42' W 068°30'4019.9 220 / 301002.8 8.4
2015-Jul-03 06:00N 48°18' W 069°18'1010.0 230 / 201004.3 6.7
2015-Jul-03 05:00N 48°12' W 069°30'4120.6 250 / 151005.3 5.4
2015-Jul-03 03:00N 47°36' W 070°00'2020.2 240 / 181007.7 8.2
2015-Jul-03 02:00N 47°24' W 070°24'2221.8 250 / 131008.2 12.0
2015-Jul-03 01:00N 47°06' W 070°42'1717.2 260 / 141008.9 18.2
2015-Jul-03 00:00N 46°54' W 071°00'1010.2 280 / 81009.7 20.2
2015-Jul-02 23:00N 46°48' W 071°12'1010.2 290 / 81009.4 19.9
2015-Jul-02 22:00N 46°42' W 071°24'1616.5 280 / 141009.0 20.0
2015-Jul-02 21:00N 46°42' W 071°48'1413.7 320 / 201008.9 19.9
2015-Jul-02 20:00N 46°36' W 072°06'1514.6 290 / 121008.0 19.7
2015-Jul-02 19:00N 46°24' W 072°18'1413.8 270 / 151007.6 19.5
2015-Jul-02 18:00N 46°18' W 072°36'1010.2 260 / 181007.2 19.2
2015-Jul-02 17:00N 46°12' W 072°48'1010.3 260 / 161007.5 19.2
2015-Jul-02 16:00N 46°06' W 073°00'1514.6 250 / 191007.6 18.9
2015-Jul-02 15:00N 45°54' W 073°12'1514.6 240 / 161008.1 18.7
2015-Jul-02 14:00N 45°42' W 073°24'7 7.3 230 / 121008.9 18.4
2015-Jul-02 13:00N 45°36' W 073°30'   270 / 91009.6 18.9
2015-Jun-29 06:00N 45°48' W 073°18'7 7.3 050 / 91006.9 19.2
2015-Jun-29 05:00N 45°54' W 073°12'2211.0 040 / 81007.0 19.4
2015-Jun-29 03:00N 46°12' W 072°54'14 6.9 090 / 221008.4 20.2
2015-Jun-29 01:00N 46°18' W 072°36'1010.2 060 / 101010.1 20.2
2015-Jun-29 00:00N 46°24' W 072°24'1010.2 080 / 211010.4 20.5
2015-Jun-28 23:00N 46°30' W 072°12'2010.2 060 / 91011.0 20.7
2015-Jun-28 21:00N 46°42' W 071°48'1616.5 070 / 211012.1 20.9
2015-Jun-28 20:00N 46°42' W 071°24'3015.2 070 / 161013.2 20.9
2015-Jun-28 18:00N 47°00' W 070°48'2221.8 100 / 71013.8 20.2
2015-Jun-28 17:00N 47°18' W 070°30'1717.1 280 / 21014.8 16.2
2015-Jun-28 16:00N 47°30' W 070°12'2221.7 210 / 41015.3 10.2
2015-Jun-28 15:00N 47°48' W 069°54'1717.0 210 / 51015.0 11.2
2015-Jun-28 14:00N 48°00' W 069°36'1312.7 210 / 121015.5 8.5
2015-Jun-28 13:00N 48°12' W 069°30'1414.4 220 / 91016.2 8.2
2015-Jun-28 12:00N 48°24' W 069°18'3718.3 220 / 161016.1 8.4
2015-Jun-28 10:00N 48°42' W 068°30'2019.8 230 / 151015.3 8.4
2015-Jun-28 09:00N 48°54' W 068°06'2019.8 230 / 151015.0 10.0
2015-Jun-28 08:00N 49°06' W 067°42'9218.4 240 / 41016.1 12.5
2015-Jun-28 03:00N 49°24' W 065°24'2019.5 150 / 51016.9 11.9
2015-Jun-28 02:00N 49°24' W 064°54'1615.6 130 / 101017.8 12.7
2015-Jun-28 01:00N 49°24' W 064°30'2020.4 230 / 41017.4 13.4
2015-Jun-28 00:00N 49°18' W 064°00'1716.8 160 / 81017.9 13.0
2015-Jun-27 23:00N 49°12' W 063°36'2323.0 160 / 91018.5 12.2
2015-Jun-27 22:00N 49°00' W 063°06'2019.8 180 / 91018.6 11.4
2015-Jun-27 21:00N 48°48' W 062°42'1716.9 190 / 91019.0 11.4
2015-Jun-27 20:00N 48°42' W 062°18'2019.9 200 / 101019.2 9.5
2015-Jun-27 19:00N 48°30' W 061°54'1717.0 240 / 121019.6 9.9
2015-Jun-27 18:00N 48°24' W 061°30'4020.0 240 / 121020.0 9.5
2015-Jun-27 16:00N 48°00' W 060°42'1717.2 290 / 61019.8 9.9
2015-Jun-27 15:00N 47°54' W 060°18'2020.1 330 / 81019.6 9.2
2015-Jun-27 14:00N 47°42' W 059°54'2020.1 340 / 121019.3 8.9
2015-Jun-27 13:00N 47°30' W 059°30'2121.2 330 / 81019.4 9.2
2015-Jun-27 12:00N 47°24' W 059°00'1717.3 070 / 81019.2 9.2
2015-Jun-27 11:00N 47°18' W 058°36'2423.7 060 / 111018.5 9.9
2015-Jun-27 10:00N 47°06' W 058°06'1717.4 080 / 71017.8 9.7
2015-Jun-27 09:00N 47°00' W 057°42'2121.3 060 / 101017.2 9.7
2015-Jun-27 08:00N 46°54' W 057°12'6220.8 040 / 141016.3 9.7
2015-Jun-27 05:00N 46°30' W 055°48'3818.8 320 / 31015.9 8.9
2015-Jun-27 03:00N 46°24' W 054°54'2221.6 260 / 91016.0 8.9
2015-Jun-27 02:00N 46°18' W 054°24'2120.7 270 / 31016.3 8.4
2015-Jun-27 01:00N 46°18' W 053°54'6220.7 270 / 71015.6 8.4
2015-Jun-26 22:00N 46°18' W 052°24'4120.4 240 / 171013.8 8.0
2015-Jun-26 20:00N 46°42' W 051°36'2020.3 300 / 91014.8 8.2
2015-Jun-26 19:00N 46°54' W 051°12'2423.7 290 / 121013.9 7.5
2015-Jun-26 18:00N 47°06' W 050°42'2020.2 290 / 121013.1 6.9
2015-Jun-26 17:00N 47°18' W 050°18'1717.3 260 / 131011.9 6.7
2015-Jun-26 16:00N 47°24' W 049°54'2423.6 250 / 121011.2 6.4
2015-Jun-26 15:00N 47°36' W 049°24'2121.1 240 / 131010.7 6.2
2015-Jun-26 14:00N 47°42' W 048°54'2020.1 260 / 111010.7 5.9
2015-Jun-26 13:00N 47°54' W 048°30'2020.0 270 / 131010.0 5.9
2015-Jun-26 12:00N 48°06' W 048°06'2323.3 270 / 121009.4 5.7
2015-Jun-26 11:00N 48°18' W 047°36'2019.9 270 / 101008.8 5.4
2015-Jun-26 10:00N 48°30' W 047°12'2019.9 300 / 111008.2 7.7
2015-Jun-26 09:00N 48°42' W 046°48'2019.8 320 / 111007.7 7.4
2015-Jun-26 08:00N 48°54' W 046°24'1313.3 310 / 91007.0 5.7
2015-Jun-26 07:00N 49°00' W 046°06'2019.8 330 / 91006.4 7.9
2015-Jun-26 06:00N 49°12' W 045°42'2323.0 330 / 71006.2 7.4
2015-Jun-26 05:00N 49°24' W 045°12'2423.8 330 / 101006.1 7.5
2015-Jun-26 04:00N 49°42' W 044°48'2322.8 020 / 101006.2 10.7
2015-Jun-26 03:00N 49°54' W 044°18'2019.5 350 / 41006.0 11.0
2015-Jun-26 02:00N 50°06' W 043°54'2322.6 330 / 31006.2 10.0
2015-Jun-26 01:00N 50°18' W 043°24'2322.6 320 / 61006.6 9.7
2015-Jun-26 00:00N 50°30' W 042°54'1919.4 320 / 81006.6 13.0
2015-Jun-25 23:00N 50°42' W 042°30'2222.4 270 / 71005.8 12.9
2015-Jun-25 22:00N 50°54' W 042°00'2222.4 290 / 111005.4 10.9
2015-Jun-25 21:00N 51°06' W 041°30'2222.3 310 / 171004.9 10.2
2015-Jun-25 20:00N 51°18' W 041°00'2222.2 280 / 171004.7 9.7
2015-Jun-25 19:00N 51°30' W 040°30'2222.2 280 / 151004.1 8.7
2015-Jun-25 18:00N 51°42' W 040°00'1919.1 290 / 171003.2 9.7
2015-Jun-25 17:00N 51°54' W 039°36'2222.0 290 / 171002.4 8.4
2015-Jun-25 16:00N 52°06' W 039°06'2222.0 300 / 191001.3 9.2
2015-Jun-25 15:00N 52°18' W 038°36'2221.9 290 / 161000.4 9.0
2015-Jun-25 14:00N 52°30' W 038°06'4723.3 290 / 17999.4 9.0
2015-Jun-25 12:00N 52°54' W 037°00'2221.7 300 / 19997.5 8.9
2015-Jun-25 11:00N 53°06' W 036°30'2221.6 300 / 19996.6 8.9
2015-Jun-25 10:00N 53°18' W 036°00'1918.9 310 / 20995.7 8.9
2015-Jun-25 09:00N 53°24' W 035°30'2221.5 310 / 19994.8 8.7
2015-Jun-25 08:00N 53°36' W 035°00'2424.5 310 / 18994.2 8.5
2015-Jun-25 07:00N 53°48' W 034°24'2121.4 310 / 18993.1 8.9
2015-Jun-25 06:00N 54°00' W 033°54'2222.0 310 / 19992.2 9.0
2015-Jun-25 05:00N 54°06' W 033°18'2121.3 330 / 17991.8 9.2
2015-Jun-25 04:00N 54°18' W 032°48'2424.1 330 / 16991.4 9.4
2015-Jun-25 03:00N 54°30' W 032°12'2221.7 010 / 14991.7 9.4
2015-Jun-25 02:00N 54°36' W 031°36'2121.1 030 / 17991.9 9.5
2015-Jun-25 01:00N 54°48' W 031°06'2221.6 040 / 19992.3 9.9
2015-Jun-25 00:00N 54°54' W 030°30'2423.9 040 / 21992.8 9.9
2015-Jun-24 23:00N 55°06' W 029°54'2423.8 040 / 22993.1 9.9
2015-Jun-24 22:00N 55°18' W 029°18'2121.3 050 / 22993.5 9.7
2015-Jun-24 21:00N 55°24' W 028°42'2423.7 050 / 24994.5 9.2
2015-Jun-24 20:00N 55°36' W 028°06'2121.2 060 / 21995.7 9.4
2015-Jun-24 19:00N 55°42' W 027°30'2121.1 070 / 21997.0 10.2
2015-Jun-24 18:00N 55°48' W 026°54'2323.5 080 / 19998.5 10.4
2015-Jun-24 17:00N 56°00' W 026°18'2121.0 090 / 171000.0 10.2
2015-Jun-24 16:00N 56°06' W 025°42'4421.9 090 / 161001.4 10.4
2015-Jun-24 14:00N 56°24' W 024°30'2120.8 100 / 151003.9 10.4
2015-Jun-24 13:00N 56°30' W 023°54'2120.7 110 / 141004.9 10.9
2015-Jun-24 12:00N 56°36' W 023°18'2120.7 110 / 141005.3 5.4 11.0
2015-Jun-24 11:00N 56°42' W 022°42'2625.9 110 / 131005.9 11.0
2015-Jun-24 10:00N 56°54' W 022°00'2120.5 120 / 121006.9 11.0
2015-Jun-24 09:00N 57°00' W 021°24'2020.5 110 / 141006.8 10.4
2015-Jun-24 08:00N 57°06' W 020°48'2020.4 120 / 131007.7 10.9
2015-Jun-24 07:00N 57°12' W 020°12'   100 / 151008.3 10.9
Track history (hours):
 
Tides and Currents Weather Stations Pressure Air Temp Water Temp Dewpoint Dewpoint Depression Visibility Wind Speed Wind Dir Waves Ship Positions

Callsign BATEU06 (name unknown)

Last reported at 2015-Jul-04 07:00 UTC. Time now 2015-Jul-04 08:24 UTC.
Position N 47°06' W 058°18'.

Wind from 220 at 11 knots

Barometer 1009.4 mb
Water temperature 10.7 ° C

Date/timePositionNaut miles runAvg speedWind from/ knotsBaromVisibWave heightAir tempDewpointWater temp
2015-Jul-04 07:00N 47°06' W 058°18'1717.4 220 / 111009.4 10.7
2015-Jul-04 06:00N 47°12' W 058°42'1717.4 210 / 101008.9 10.9
2015-Jul-04 05:00N 47°18' W 059°06'2121.2 190 / 101008.4 10.4
2015-Jul-04 04:00N 47°24' W 059°36'2020.2 170 / 101008.1 11.0
2015-Jul-04 03:00N 47°36' W 060°00'2020.1 180 / 171007.6 9.4
2015-Jul-04 02:00N 47°48' W 060°24'1717.2 180 / 191007.0 10.2
2015-Jul-04 01:00N 47°54' W 060°48'2020.0 200 / 141006.9 11.0
2015-Jul-04 00:00N 48°06' W 061°12'2020.0 210 / 161006.2 11.7
2015-Jul-03 23:00N 48°18' W 061°36'1717.0 230 / 181005.8 12.7
2015-Jul-03 22:00N 48°24' W 062°00'4321.5 230 / 181005.0 12.2
2015-Jul-03 20:00N 48°48' W 062°54'1716.9 270 / 111004.9 13.4
2015-Jul-03 19:00N 48°54' W 063°18'2019.8 270 / 131004.5 12.7
2015-Jul-03 18:00N 49°06' W 063°42'1716.8 250 / 121004.0 11.9
2015-Jul-03 17:00N 49°12' W 064°06'2020.5 100 / 21002.8 12.7
2015-Jul-03 16:00N 49°18' W 064°36'2019.6 080 / 61002.1 11.4
2015-Jul-03 15:00N 49°18' W 065°06'2020.4 050 / 91002.6 13.7
2015-Jul-03 14:00N 49°24' W 065°36'2020.4 150 / 11002.8 12.7
2015-Jul-03 13:00N 49°18' W 066°06'2019.6 230 / 171003.2 13.0
2015-Jul-03 12:00N 49°18' W 066°36'2020.5 230 / 221002.8 12.2
2015-Jul-03 11:00N 49°12' W 067°06'2323.0 230 / 301002.5 11.4
2015-Jul-03 10:00N 49°00' W 067°36'4019.9 230 / 271002.5 8.9
2015-Jul-03 08:00N 48°42' W 068°30'4019.9 220 / 301002.8 8.4
2015-Jul-03 06:00N 48°18' W 069°18'1010.0 230 / 201004.3 6.7
2015-Jul-03 05:00N 48°12' W 069°30'4120.6 250 / 151005.3 5.4
2015-Jul-03 03:00N 47°36' W 070°00'2020.2 240 / 181007.7 8.2
2015-Jul-03 02:00N 47°24' W 070°24'2221.8 250 / 131008.2 12.0
2015-Jul-03 01:00N 47°06' W 070°42'1717.2 260 / 141008.9 18.2
2015-Jul-03 00:00N 46°54' W 071°00'1010.2 280 / 81009.7 20.2
2015-Jul-02 23:00N 46°48' W 071°12'1010.2 290 / 81009.4 19.9
2015-Jul-02 22:00N 46°42' W 071°24'1616.5 280 / 141009.0 20.0
2015-Jul-02 21:00N 46°42' W 071°48'1413.7 320 / 201008.9 19.9
2015-Jul-02 20:00N 46°36' W 072°06'1514.6 290 / 121008.0 19.7
2015-Jul-02 19:00N 46°24' W 072°18'1413.8 270 / 151007.6 19.5
2015-Jul-02 18:00N 46°18' W 072°36'1010.2 260 / 181007.2 19.2
2015-Jul-02 17:00N 46°12' W 072°48'1010.3 260 / 161007.5 19.2
2015-Jul-02 16:00N 46°06' W 073°00'1514.6 250 / 191007.6 18.9
2015-Jul-02 15:00N 45°54' W 073°12'1514.6 240 / 161008.1 18.7
2015-Jul-02 14:00N 45°42' W 073°24'7 7.3 230 / 121008.9 18.4
2015-Jul-02 13:00N 45°36' W 073°30'   270 / 91009.6 18.9
2015-Jun-29 06:00N 45°48' W 073°18'7 7.3 050 / 91006.9 19.2
2015-Jun-29 05:00N 45°54' W 073°12'2211.0 040 / 81007.0 19.4
2015-Jun-29 03:00N 46°12' W 072°54'14 6.9 090 / 221008.4 20.2
2015-Jun-29 01:00N 46°18' W 072°36'1010.2 060 / 101010.1 20.2
2015-Jun-29 00:00N 46°24' W 072°24'1010.2 080 / 211010.4 20.5
2015-Jun-28 23:00N 46°30' W 072°12'2010.2 060 / 91011.0 20.7
2015-Jun-28 21:00N 46°42' W 071°48'1616.5 070 / 211012.1 20.9
2015-Jun-28 20:00N 46°42' W 071°24'3015.2 070 / 161013.2 20.9
2015-Jun-28 18:00N 47°00' W 070°48'2221.8 100 / 71013.8 20.2
2015-Jun-28 17:00N 47°18' W 070°30'1717.1 280 / 21014.8 16.2
2015-Jun-28 16:00N 47°30' W 070°12'2221.7 210 / 41015.3 10.2
2015-Jun-28 15:00N 47°48' W 069°54'1717.0 210 / 51015.0 11.2
2015-Jun-28 14:00N 48°00' W 069°36'1312.7 210 / 121015.5 8.5
2015-Jun-28 13:00N 48°12' W 069°30'1414.4 220 / 91016.2 8.2
2015-Jun-28 12:00N 48°24' W 069°18'3718.3 220 / 161016.1 8.4
2015-Jun-28 10:00N 48°42' W 068°30'2019.8 230 / 151015.3 8.4
2015-Jun-28 09:00N 48°54' W 068°06'2019.8 230 / 151015.0 10.0
2015-Jun-28 08:00N 49°06' W 067°42'9218.4 240 / 41016.1 12.5
2015-Jun-28 03:00N 49°24' W 065°24'2019.5 150 / 51016.9 11.9
2015-Jun-28 02:00N 49°24' W 064°54'1615.6 130 / 101017.8 12.7
2015-Jun-28 01:00N 49°24' W 064°30'2020.4 230 / 41017.4 13.4
2015-Jun-28 00:00N 49°18' W 064°00'1716.8 160 / 81017.9 13.0
2015-Jun-27 23:00N 49°12' W 063°36'2323.0 160 / 91018.5 12.2
2015-Jun-27 22:00N 49°00' W 063°06'2019.8 180 / 91018.6 11.4
2015-Jun-27 21:00N 48°48' W 062°42'1716.9 190 / 91019.0 11.4
2015-Jun-27 20:00N 48°42' W 062°18'2019.9 200 / 101019.2 9.5
2015-Jun-27 19:00N 48°30' W 061°54'1717.0 240 / 121019.6 9.9
2015-Jun-27 18:00N 48°24' W 061°30'4020.0 240 / 121020.0 9.5
2015-Jun-27 16:00N 48°00' W 060°42'1717.2 290 / 61019.8 9.9
2015-Jun-27 15:00N 47°54' W 060°18'2020.1 330 / 81019.6 9.2
2015-Jun-27 14:00N 47°42' W 059°54'2020.1 340 / 121019.3 8.9
2015-Jun-27 13:00N 47°30' W 059°30'2121.2 330 / 81019.4 9.2
2015-Jun-27 12:00N 47°24' W 059°00'1717.3 070 / 81019.2 9.2
2015-Jun-27 11:00N 47°18' W 058°36'2423.7 060 / 111018.5 9.9
2015-Jun-27 10:00N 47°06' W 058°06'1717.4 080 / 71017.8 9.7
2015-Jun-27 09:00N 47°00' W 057°42'2121.3 060 / 101017.2 9.7
2015-Jun-27 08:00N 46°54' W 057°12'6220.8 040 / 141016.3 9.7
2015-Jun-27 05:00N 46°30' W 055°48'3818.8 320 / 31015.9 8.9
2015-Jun-27 03:00N 46°24' W 054°54'2221.6 260 / 91016.0 8.9
2015-Jun-27 02:00N 46°18' W 054°24'2120.7 270 / 31016.3 8.4
2015-Jun-27 01:00N 46°18' W 053°54'6220.7 270 / 71015.6 8.4
2015-Jun-26 22:00N 46°18' W 052°24'4120.4 240 / 171013.8 8.0
2015-Jun-26 20:00N 46°42' W 051°36'2020.3 300 / 91014.8 8.2
2015-Jun-26 19:00N 46°54' W 051°12'2423.7 290 / 121013.9 7.5
2015-Jun-26 18:00N 47°06' W 050°42'2020.2 290 / 121013.1 6.9
2015-Jun-26 17:00N 47°18' W 050°18'1717.3 260 / 131011.9 6.7
2015-Jun-26 16:00N 47°24' W 049°54'2423.6 250 / 121011.2 6.4
2015-Jun-26 15:00N 47°36' W 049°24'2121.1 240 / 131010.7 6.2
2015-Jun-26 14:00N 47°42' W 048°54'2020.1 260 / 111010.7 5.9
2015-Jun-26 13:00N 47°54' W 048°30'2020.0 270 / 131010.0 5.9
2015-Jun-26 12:00N 48°06' W 048°06'2323.3 270 / 121009.4 5.7
2015-Jun-26 11:00N 48°18' W 047°36'2019.9 270 / 101008.8 5.4
2015-Jun-26 10:00N 48°30' W 047°12'2019.9 300 / 111008.2 7.7
2015-Jun-26 09:00N 48°42' W 046°48'2019.8 320 / 111007.7 7.4
2015-Jun-26 08:00N 48°54' W 046°24'1313.3 310 / 91007.0 5.7
2015-Jun-26 07:00N 49°00' W 046°06'2019.8 330 / 91006.4 7.9
2015-Jun-26 06:00N 49°12' W 045°42'2323.0 330 / 71006.2 7.4
2015-Jun-26 05:00N 49°24' W 045°12'2423.8 330 / 101006.1 7.5
2015-Jun-26 04:00N 49°42' W 044°48'2322.8 020 / 101006.2 10.7
2015-Jun-26 03:00N 49°54' W 044°18'2019.5 350 / 41006.0 11.0
2015-Jun-26 02:00N 50°06' W 043°54'2322.6 330 / 31006.2 10.0
2015-Jun-26 01:00N 50°18' W 043°24'2322.6 320 / 61006.6 9.7
2015-Jun-26 00:00N 50°30' W 042°54'1919.4 320 / 81006.6 13.0
2015-Jun-25 23:00N 50°42' W 042°30'2222.4 270 / 71005.8 12.9
2015-Jun-25 22:00N 50°54' W 042°00'2222.4 290 / 111005.4 10.9
2015-Jun-25 21:00N 51°06' W 041°30'2222.3 310 / 171004.9 10.2
2015-Jun-25 20:00N 51°18' W 041°00'2222.2 280 / 171004.7 9.7
2015-Jun-25 19:00N 51°30' W 040°30'2222.2 280 / 151004.1 8.7
2015-Jun-25 18:00N 51°42' W 040°00'1919.1 290 / 171003.2 9.7
2015-Jun-25 17:00N 51°54' W 039°36'2222.0 290 / 171002.4 8.4
2015-Jun-25 16:00N 52°06' W 039°06'2222.0 300 / 191001.3 9.2
2015-Jun-25 15:00N 52°18' W 038°36'2221.9 290 / 161000.4 9.0
2015-Jun-25 14:00N 52°30' W 038°06'4723.3 290 / 17999.4 9.0
2015-Jun-25 12:00N 52°54' W 037°00'2221.7 300 / 19997.5 8.9
2015-Jun-25 11:00N 53°06' W 036°30'2221.6 300 / 19996.6 8.9
2015-Jun-25 10:00N 53°18' W 036°00'1918.9 310 / 20995.7 8.9
2015-Jun-25 09:00N 53°24' W 035°30'2221.5 310 / 19994.8 8.7
2015-Jun-25 08:00N 53°36' W 035°00'2424.5 310 / 18994.2 8.5
2015-Jun-25 07:00N 53°48' W 034°24'2121.4 310 / 18993.1 8.9
2015-Jun-25 06:00N 54°00' W 033°54'2222.0 310 / 19992.2 9.0
2015-Jun-25 05:00N 54°06' W 033°18'2121.3 330 / 17991.8 9.2
2015-Jun-25 04:00N 54°18' W 032°48'2424.1 330 / 16991.4 9.4
2015-Jun-25 03:00N 54°30' W 032°12'2221.7 010 / 14991.7 9.4
2015-Jun-25 02:00N 54°36' W 031°36'2121.1 030 / 17991.9 9.5
2015-Jun-25 01:00N 54°48' W 031°06'2221.6 040 / 19992.3 9.9
2015-Jun-25 00:00N 54°54' W 030°30'2423.9 040 / 21992.8 9.9
2015-Jun-24 23:00N 55°06' W 029°54'2423.8 040 / 22993.1 9.9
2015-Jun-24 22:00N 55°18' W 029°18'2121.3 050 / 22993.5 9.7
2015-Jun-24 21:00N 55°24' W 028°42'2423.7 050 / 24994.5 9.2
2015-Jun-24 20:00N 55°36' W 028°06'2121.2 060 / 21995.7 9.4
2015-Jun-24 19:00N 55°42' W 027°30'2121.1 070 / 21997.0 10.2
2015-Jun-24 18:00N 55°48' W 026°54'2323.5 080 / 19998.5 10.4
2015-Jun-24 17:00N 56°00' W 026°18'2121.0 090 / 171000.0 10.2
2015-Jun-24 16:00N 56°06' W 025°42'4421.9 090 / 161001.4 10.4
2015-Jun-24 14:00N 56°24' W 024°30'2120.8 100 / 151003.9 10.4
2015-Jun-24 13:00N 56°30' W 023°54'2120.7 110 / 141004.9 10.9
2015-Jun-24 12:00N 56°36' W 023°18'2120.7 110 / 141005.3 5.4 11.0
2015-Jun-24 11:00N 56°42' W 022°42'2625.9 110 / 131005.9 11.0
2015-Jun-24 10:00N 56°54' W 022°00'2120.5 120 / 121006.9 11.0
2015-Jun-24 09:00N 57°00' W 021°24'2020.5 110 / 141006.8 10.4
2015-Jun-24 08:00N 57°06' W 020°48'2020.4 120 / 131007.7 10.9
2015-Jun-24 07:00N 57°12' W 020°12'   100 / 151008.3 10.9

Dump ship's entire track history